Time;durP1;ratioP1;P1;durP2;ratioP2;P2;SDS_P1;SDS_P2;PMS_P1;PMS_P2;Temp;Humidity;BMP_temperature;BMP_pressure;BME280_temperature;BME280_humidity;BME280_pressure;Samples;Min_cycle;Max_cycle;Signal;HPM_P1;HPM_P2
2022/07/24 00:02:12;;;;;;;;;;;26.10;99.90;;;;;;5095476;28;19915;-72
2022/07/24 00:04:38;;;;;;;;;;;26.00;99.90;;;;;;5095396;28;19907;-72
2022/07/24 00:07:04;;;;;;;;;;;25.90;99.90;;;;;;5095534;28;19949;-72
2022/07/24 00:09:30;;;;;;;;;;;25.90;99.90;;;;;;5095331;28;20319;-72
2022/07/24 00:11:56;;;;;;;;;;;25.80;99.90;;;;;;5095552;28;19903;-72
2022/07/24 00:14:22;;;;;;;;;;;25.70;99.90;;;;;;5095475;28;19911;-72
2022/07/24 00:16:48;;;;;;;;;;;25.70;99.90;;;;;;5095428;28;19904;-72
2022/07/24 00:19:14;;;;;;;;;;;25.70;99.90;;;;;;5093589;28;19916;-72
2022/07/24 00:21:40;;;;;;;;;;;25.60;99.90;;;;;;5093518;28;19964;-72
2022/07/24 00:24:05;;;;;;;;;;;25.70;99.90;;;;;;5095092;28;19941;-72
2022/07/24 00:26:31;;;;;;;;;;;25.70;99.90;;;;;;5095251;28;20387;-72
2022/07/24 00:28:57;;;;;;;;;;;25.70;99.90;;;;;;5094982;28;19911;-72
2022/07/24 00:31:23;;;;;;;;;;;25.80;99.90;;;;;;5095120;28;19908;-72
2022/07/24 00:33:49;;;;;;;;;;;25.70;99.90;;;;;;5094841;28;19923;-72
2022/07/24 00:36:15;;;;;;;;;;;25.80;99.90;;;;;;5094990;28;19904;-72
2022/07/24 00:38:41;;;;;;;;;;;25.90;99.90;;;;;;5094647;28;19912;-72
2022/07/24 00:41:07;;;;;;;;;;;26.00;99.90;;;;;;5092280;28;20413;-72
2022/07/24 00:43:33;;;;;;;;;;;26.00;99.90;;;;;;5095035;28;19912;-72
2022/07/24 00:45:59;;;;;;;;;;;26.10;99.90;;;;;;5094607;28;19917;-72
2022/07/24 00:48:25;;;;;;;;;;;26.10;99.90;;;;;;5093219;28;19904;-72
2022/07/24 00:50:51;;;;;;;;;;;26.10;99.90;;;;;;5094368;28;19903;-72
2022/07/24 00:53:17;;;;;;;;;;;26.20;99.90;;;;;;5094851;28;19965;-72
2022/07/24 00:55:43;;;;;;;;;;;26.20;99.90;;;;;;5094525;28;19915;-73
2022/07/24 00:58:09;;;;;;;;;;;26.20;99.90;;;;;;5094577;28;19912;-73
2022/07/24 01:00:34;;;;;;;;;;;26.10;99.90;;;;;;5094288;28;19911;-73
2022/07/24 01:03:00;;;;;;;;;;;26.10;99.90;;;;;;5094643;28;20269;-73
2022/07/24 01:05:26;;;;;;;;;;;26.10;99.90;;;;;;5092781;28;19904;-72
2022/07/24 01:07:52;;;;;;;;;;;26.00;99.90;;;;;;5094803;28;20331;-72
2022/07/24 01:10:18;;;;;;;;;;;26.10;99.90;;;;;;5094163;28;19904;-72
2022/07/24 01:12:44;;;;;;;;;;;26.10;99.90;;;;;;5094156;28;19911;-73
2022/07/24 01:15:10;;;;;;;;;;;26.10;99.90;;;;;;5094257;28;19935;-72
2022/07/24 01:17:38;;;;;;;;;;;26.10;99.90;;;;;;5094280;28;19916;-72
2022/07/24 01:20:05;;;;;;;;;;;26.10;99.90;;;;;;5094244;28;20011;-72
2022/07/24 01:22:32;;;;;;;;;;;26.10;99.90;;;;;;5093831;28;19912;-72
2022/07/24 01:24:58;;;;;;;;;;;26.20;99.90;;;;;;5092390;28;19927;-72
2022/07/24 01:27:24;;;;;;;;;;;26.20;99.90;;;;;;5094158;28;19904;-72
2022/07/24 01:29:51;;;;;;;;;;;26.30;99.90;;;;;;5093725;28;19904;-72
2022/07/24 01:32:16;;;;;;;;;;;26.30;99.90;;;;;;5093604;28;19904;-72
2022/07/24 01:34:43;;;;;;;;;;;26.30;99.90;;;;;;5093639;28;19910;-72
2022/07/24 01:37:08;;;;;;;;;;;26.20;99.90;;;;;;5093533;28;19912;-72
2022/07/24 01:39:34;;;;;;;;;;;26.20;99.90;;;;;;5094117;28;19904;-72
2022/07/24 01:42:00;;;;;;;;;;;26.20;99.90;;;;;;5093460;28;19927;-72
2022/07/24 01:44:26;;;;;;;;;;;26.20;99.90;;;;;;5093599;28;20367;-72
2022/07/24 01:46:52;;;;;;;;;;;26.20;99.90;;;;;;5093512;28;20060;-73
2022/07/24 01:49:18;;;;;;;;;;;26.20;99.90;;;;;;5093533;28;19911;-72
2022/07/24 01:51:43;;;;;;;;;;;26.30;99.90;;;;;;5093077;28;20021;-72
2022/07/24 01:54:09;;;;;;;;;;;26.20;99.90;;;;;;5091648;28;19903;-72
2022/07/24 01:56:35;;;;;;;;;;;26.20;99.90;;;;;;5093038;28;20356;-72
2022/07/24 01:59:01;;;;;;;;;;;26.30;99.90;;;;;;5093354;28;19966;-72
2022/07/24 02:01:27;;;;;;;;;;;26.30;99.90;;;;;;5091580;28;19926;-72
2022/07/24 02:03:52;;;;;;;;;;;26.30;99.90;;;;;;5093018;28;19915;-72
2022/07/24 02:06:18;;;;;;;;;;;26.20;99.90;;;;;;5093161;28;19911;-72
2022/07/24 02:08:44;;;;;;;;;;;26.30;99.90;;;;;;5091633;28;19973;-72
2022/07/24 02:11:10;;;;;;;;;;;26.30;99.90;;;;;;5093479;28;19911;-71
2022/07/24 02:13:36;;;;;;;;;;;26.20;99.90;;;;;;5093053;28;20302;-72
2022/07/24 02:16:02;;;;;;;;;;;26.20;99.90;;;;;;5093056;28;19904;-71
2022/07/24 02:18:28;;;;;;;;;;;26.30;99.90;;;;;;5092620;28;20006;-72
2022/07/24 02:20:54;;;;;;;;;;;26.30;99.90;;;;;;5092862;28;19949;-72
2022/07/24 02:23:21;;;;;;;;;;;26.30;99.90;;;;;;5091173;28;19992;-72
2022/07/24 02:25:47;;;;;;;;;;;26.40;99.90;;;;;;5093034;28;20350;-72
2022/07/24 02:28:13;;;;;;;;;;;26.30;99.90;;;;;;5091238;28;19904;-72
2022/07/24 02:30:39;;;;;;;;;;;26.30;99.90;;;;;;5092713;28;19908;-71
2022/07/24 02:33:05;;;;;;;;;;;26.30;99.90;;;;;;5092534;28;20052;-72
2022/07/24 02:35:31;;;;;;;;;;;26.30;99.90;;;;;;5092946;28;20283;-72
2022/07/24 02:37:57;;;;;;;;;;;26.30;99.90;;;;;;5092447;28;19908;-72
2022/07/24 02:40:23;;;;;;;;;;;26.30;99.90;;;;;;5092929;28;19984;-72
2022/07/24 02:42:48;;;;;;;;;;;26.30;99.90;;;;;;5090881;28;19904;-72
2022/07/24 02:45:14;;;;;;;;;;;26.30;99.90;;;;;;5092326;28;20010;-72
2022/07/24 02:47:51;;;;;;;;;;;26.30;99.90;;;;;;5092683;28;19919;-72
2022/07/24 02:50:17;;;;;;;;;;;26.30;99.90;;;;;;5093096;28;19911;-72
2022/07/24 02:52:43;;;;;;;;;;;26.10;99.90;;;;;;5092657;28;20301;-72
2022/07/24 02:55:09;;;;;;;;;;;26.10;99.90;;;;;;5092148;28;19911;-72
2022/07/24 02:57:35;;;;;;;;;;;26.10;99.90;;;;;;5092573;28;20259;-72
2022/07/24 03:00:06;;;;;;;;;;;26.10;99.90;;;;;;5092171;28;19911;-72
2022/07/24 03:02:32;;;;;;;;;;;26.00;99.90;;;;;;5091511;28;19998;-72
2022/07/24 03:04:58;;;;;;;;;;;26.00;99.90;;;;;;5090510;28;19948;-72
2022/07/24 03:07:23;;;;;;;;;;;26.00;99.90;;;;;;5091979;28;19972;-72
2022/07/24 03:09:49;;;;;;;;;;;25.90;99.90;;;;;;5092260;28;20289;-73
2022/07/24 03:12:15;;;;;;;;;;;26.00;99.90;;;;;;5090442;28;19953;-73
2022/07/24 03:14:41;;;;;;;;;;;25.90;99.90;;;;;;5091985;28;20356;-73
2022/07/24 03:17:06;;;;;;;;;;;26.00;99.90;;;;;;5091849;28;19904;-72
2022/07/24 03:19:32;;;;;;;;;;;25.90;99.90;;;;;;5091780;28;20360;-72
2022/07/24 03:21:58;;;;;;;;;;;26.00;99.90;;;;;;5090367;28;20048;-72
2022/07/24 03:24:24;;;;;;;;;;;26.00;99.90;;;;;;5090409;28;19930;-72
2022/07/24 03:26:50;;;;;;;;;;;26.00;99.90;;;;;;5092162;28;19953;-72
2022/07/24 03:29:17;;;;;;;;;;;26.00;99.90;;;;;;5092548;28;19920;-72
2022/07/24 03:31:43;;;;;;;;;;;26.00;99.90;;;;;;5091574;28;19931;-72
2022/07/24 03:34:09;;;;;;;;;;;26.00;99.90;;;;;;5092031;28;19994;-72
2022/07/24 03:36:35;;;;;;;;;;;25.90;99.90;;;;;;5091719;28;19908;-72
2022/07/24 03:39:01;;;;;;;;;;;25.90;99.90;;;;;;5091562;28;20014;-72
2022/07/24 03:41:27;;;;;;;;;;;25.90;99.90;;;;;;5091609;28;19908;-73
2022/07/24 03:43:53;;;;;;;;;;;25.80;99.90;;;;;;5091832;28;19904;-72
2022/07/24 03:46:19;;;;;;;;;;;25.90;99.90;;;;;;5090168;28;19904;-72
2022/07/24 03:48:45;;;;;;;;;;;25.90;99.90;;;;;;5091849;28;19996;-73
2022/07/24 03:51:10;;;;;;;;;;;25.90;99.90;;;;;;5090446;28;20348;-73
2022/07/24 03:53:36;;;;;;;;;;;25.90;99.90;;;;;;5091916;28;20000;-72
2022/07/24 03:56:06;;;;;;;;;;;25.90;99.90;;;;;;5091571;28;19904;-72
2022/07/24 03:58:32;;;;;;;;;;;25.90;99.90;;;;;;5091862;28;20017;-73
2022/07/24 04:00:57;;;;;;;;;;;25.90;99.90;;;;;;5090135;28;19957;-72
2022/07/24 04:03:23;;;;;;;;;;;26.00;99.90;;;;;;5091458;28;20011;-72
2022/07/24 04:05:49;;;;;;;;;;;26.00;99.90;;;;;;5091923;28;19925;-72
2022/07/24 04:08:15;;;;;;;;;;;26.00;99.90;;;;;;5091557;28;19949;-72
2022/07/24 04:10:41;;;;;;;;;;;26.00;99.90;;;;;;5091840;28;19907;-72
2022/07/24 04:13:06;;;;;;;;;;;26.00;99.90;;;;;;5090443;28;19926;-73
2022/07/24 04:15:32;;;;;;;;;;;26.00;99.90;;;;;;5092936;28;19904;-73
2022/07/24 04:17:59;;;;;;;;;;;26.10;99.90;;;;;;5093297;28;19927;-71
2022/07/24 04:20:24;;;;;;;;;;;26.10;99.90;;;;;;5095242;28;19953;-71
2022/07/24 04:22:50;;;;;;;;;;;26.10;99.90;;;;;;5093327;28;19933;-71
2022/07/24 04:25:16;;;;;;;;;;;26.20;99.90;;;;;;5095106;28;20313;-71
2022/07/24 04:27:43;;;;;;;;;;;26.20;99.90;;;;;;5094970;28;19904;-71
2022/07/24 04:30:10;;;;;;;;;;;26.40;99.90;;;;;;5094739;28;19903;-71
2022/07/24 04:32:36;;;;;;;;;;;26.40;99.90;;;;;;5094972;28;19904;-72
2022/07/24 04:35:02;;;;;;;;;;;26.50;99.90;;;;;;5094609;28;19904;-72
2022/07/24 04:37:28;;;;;;;;;;;26.60;99.90;;;;;;5093171;28;19931;-72
2022/07/24 04:39:53;;;;;;;;;;;26.60;99.90;;;;;;5094989;28;19922;-72
2022/07/24 04:42:19;;;;;;;;;;;26.70;99.90;;;;;;5094696;28;19904;-72
2022/07/24 04:44:45;;;;;;;;;;;26.70;99.90;;;;;;5094503;28;19912;-72
2022/07/24 04:47:11;;;;;;;;;;;26.80;99.90;;;;;;5094918;28;20319;-72
2022/07/24 04:49:36;;;;;;;;;;;26.90;99.90;;;;;;5094391;28;19911;-72
2022/07/24 04:52:02;;;;;;;;;;;27.00;99.90;;;;;;5094564;28;20348;-72
2022/07/24 04:54:28;;;;;;;;;;;27.00;99.90;;;;;;5094497;28;19904;-72
2022/07/24 04:56:54;;;;;;;;;;;27.00;99.90;;;;;;5094207;28;19908;-72
2022/07/24 04:59:20;;;;;;;;;;;27.00;99.90;;;;;;5094536;28;20264;-72
2022/07/24 05:01:46;;;;;;;;;;;27.00;99.90;;;;;;5094327;28;20042;-72
2022/07/24 05:04:11;;;;;;;;;;;26.90;99.90;;;;;;5094503;28;20264;-72
2022/07/24 05:06:37;;;;;;;;;;;26.90;99.90;;;;;;5094340;28;19904;-73
2022/07/24 05:09:03;;;;;;;;;;;26.90;99.90;;;;;;5094703;28;20273;-72
2022/07/24 05:11:29;;;;;;;;;;;26.90;99.90;;;;;;5094297;28;19904;-72
2022/07/24 05:13:55;;;;;;;;;;;27.00;99.90;;;;;;5094265;28;19951;-72
2022/07/24 05:16:20;;;;;;;;;;;27.90;99.90;;;;;;5093995;28;19904;-70
2022/07/24 05:18:46;;;;;;;;;;;29.40;99.90;;;;;;5093609;28;19916;-70
2022/07/24 05:21:14;;;;;;;;;;;31.40;99.90;;;;;;5094200;28;19908;-71
2022/07/24 05:23:40;;;;;;;;;;;33.30;99.90;;;;;;5093544;28;20421;-71
2022/07/24 05:26:05;;;;;;;;;;;34.90;99.90;;;;;;5093285;28;19911;-71
2022/07/24 05:28:32;;;;;;;;;;;36.40;97.40;;;;;;5093704;28;19950;-71
2022/07/24 05:30:57;;;;;;;;;;;37.70;94.70;;;;;;5092222;28;19903;-71
2022/07/24 05:33:23;;;;;;;;;;;38.90;93.50;;;;;;5093455;28;19927;-71
2022/07/24 05:35:49;;;;;;;;;;;39.90;90.70;;;;;;5093681;28;19908;-72
2022/07/24 05:38:15;;;;;;;;;;;39.60;86.70;;;;;;5093422;28;19957;-71
2022/07/24 05:40:41;;;;;;;;;;;40.10;86.30;;;;;;5093983;28;19908;-71
2022/07/24 05:43:07;;;;;;;;;;;41.20;84.40;;;;;;5093324;28;20348;-72
2022/07/24 05:45:32;;;;;;;;;;;42.20;81.80;;;;;;5093690;28;20232;-71
2022/07/24 05:47:58;;;;;;;;;;;43.20;80.50;;;;;;5093224;28;20349;-71
2022/07/24 05:50:24;;;;;;;;;;;43.20;75.20;;;;;;5093436;28;19961;-71
2022/07/24 05:52:50;;;;;;;;;;;42.40;72.60;;;;;;5093344;28;19964;-72
2022/07/24 05:55:16;;;;;;;;;;;41.20;73.90;;;;;;5092938;28;19904;-71
2022/07/24 05:57:41;;;;;;;;;;;40.10;75.70;;;;;;5093490;28;19974;-71
2022/07/24 06:00:08;;;;;;;;;;;39.00;76.90;;;;;;5093171;28;20226;-71
2022/07/24 06:02:34;;;;;;;;;;;39.00;77.40;;;;;;5093397;28;20431;-72
2022/07/24 06:05:00;;;;;;;;;;;38.70;77.70;;;;;;5092848;28;19936;-72
2022/07/24 06:07:26;;;;;;;;;;;38.70;78.40;;;;;;5091297;28;19904;-71
2022/07/24 06:09:52;;;;;;;;;;;38.70;76.90;;;;;;5092745;28;19915;-71
2022/07/24 06:12:17;;;;;;;;;;;38.80;76.30;;;;;;5091434;28;19919;-71
2022/07/24 06:14:43;;;;;;;;;;;38.60;76.10;;;;;;5092972;28;19948;-71
2022/07/24 06:17:09;;;;;;;;;;;39.60;75.00;;;;;;5092452;28;20009;-71
2022/07/24 06:19:35;;;;;;;;;;;40.20;73.80;;;;;;5092321;28;19952;-71
2022/07/24 06:22:01;;;;;;;;;;;40.50;72.90;;;;;;5091219;28;19934;-71
2022/07/24 06:24:27;;;;;;;;;;;40.50;72.10;;;;;;5093130;28;19904;-72
2022/07/24 06:26:52;;;;;;;;;;;40.30;71.70;;;;;;5092442;28;20336;-70
2022/07/24 06:29:18;;;;;;;;;;;39.70;72.90;;;;;;5091121;28;19904;-72
2022/07/24 06:31:44;;;;;;;;;;;40.40;71.70;;;;;;5092567;28;19965;-71
2022/07/24 06:34:10;;;;;;;;;;;41.00;71.50;;;;;;5092765;28;19904;-71
2022/07/24 06:36:35;;;;;;;;;;;41.40;69.50;;;;;;5090881;28;19904;-71
2022/07/24 06:39:01;;;;;;;;;;;41.80;70.10;;;;;;5091440;28;19951;-72
2022/07/24 06:41:27;;;;;;;;;;;43.00;74.80;;;;;;5090812;28;19958;-72
2022/07/24 06:43:54;;;;;;;;;;;44.50;76.50;;;;;;5092792;28;19952;-72
2022/07/24 06:46:19;;;;;;;;;;;45.30;74.90;;;;;;5092237;28;20448;-71
2022/07/24 06:48:45;;;;;;;;;;;46.10;73.80;;;;;;5092480;28;19986;-72
2022/07/24 06:51:11;;;;;;;;;;;47.10;72.50;;;;;;5091920;28;20280;-71
2022/07/24 06:53:40;;;;;;;;;;;47.70;70.80;;;;;;5092176;28;19904;-72
2022/07/24 06:56:06;;;;;;;;;;;47.90;70.60;;;;;;5091780;28;19983;-72
2022/07/24 06:58:32;;;;;;;;;;;47.90;68.30;;;;;;5092191;28;19912;-72
2022/07/24 07:00:58;;;;;;;;;;;48.30;67.30;;;;;;5091832;28;19904;-72
2022/07/24 07:03:24;;;;;;;;;;;48.30;66.50;;;;;;5091917;28;20318;-72
2022/07/24 07:05:50;;;;;;;;;;;48.10;67.00;;;;;;5092031;28;19958;-72
2022/07/24 07:08:15;;;;;;;;;;;48.70;66.20;;;;;;5091925;28;20362;-71
2022/07/24 07:10:41;;;;;;;;;;;48.80;65.20;;;;;;5092230;28;19911;-72
2022/07/24 07:13:07;;;;;;;;;;;48.60;64.50;;;;;;5092006;28;19919;-72
2022/07/24 07:15:33;;;;;;;;;;;48.00;64.70;;;;;;5091835;28;19910;-72
2022/07/24 07:17:59;;;;;;;;;;;46.90;64.50;;;;;;5091401;28;19977;-72
2022/07/24 07:20:24;;;;;;;;;;;46.80;64.90;;;;;;5092123;28;19908;-71
2022/07/24 07:22:50;;;;;;;;;;;46.30;65.40;;;;;;5092208;28;20361;-72
2022/07/24 07:25:16;;;;;;;;;;;45.50;66.10;;;;;;5091962;28;19904;-72
2022/07/24 07:27:42;;;;;;;;;;;44.30;67.30;;;;;;5091735;28;20325;-72
2022/07/24 07:30:09;;;;;;;;;;;42.60;70.60;;;;;;5090823;28;19910;-70
2022/07/24 07:32:35;;;;;;;;;;;41.70;70.80;;;;;;5091532;28;19915;-70
2022/07/24 07:35:01;;;;;;;;;;;40.90;72.30;;;;;;5091773;28;19904;-70
2022/07/24 07:37:27;;;;;;;;;;;40.60;74.30;;;;;;5091647;28;20283;-70
2022/07/24 07:39:53;;;;;;;;;;;40.00;75.10;;;;;;5091680;28;19910;-71
2022/07/24 07:42:18;;;;;;;;;;;39.70;75.10;;;;;;5092044;28;19904;-71
2022/07/24 07:44:44;;;;;;;;;;;39.10;77.10;;;;;;5091452;28;19908;-71
2022/07/24 07:47:10;;;;;;;;;;;38.70;79.90;;;;;;5090234;28;19955;-71
2022/07/24 07:49:36;;;;;;;;;;;38.80;82.00;;;;;;5093302;28;19955;-71
2022/07/24 07:52:01;;;;;;;;;;;39.00;83.30;;;;;;5096184;28;19911;-71
2022/07/24 07:54:27;;;;;;;;;;;39.20;86.10;;;;;;5094332;28;20417;-71
2022/07/24 07:56:53;;;;;;;;;;;39.10;87.10;;;;;;5094157;28;19918;-71
2022/07/24 07:59:19;;;;;;;;;;;39.10;88.10;;;;;;5094040;28;19912;-72
2022/07/24 08:01:45;;;;;;;;;;;39.10;88.10;;;;;;5095701;28;19908;-71
2022/07/24 08:04:10;;;;;;;;;;;39.00;88.80;;;;;;5095601;28;20365;-71
2022/07/24 08:06:36;;;;;;;;;;;38.80;88.70;;;;;;5095825;28;20364;-72
2022/07/24 08:09:03;;;;;;;;;;;38.40;89.60;;;;;;5095651;28;19911;-71
2022/07/24 08:11:28;;;;;;;;;;;38.30;90.20;;;;;;5093943;28;19911;-71
2022/07/24 08:13:54;;;;;;;;;;;38.20;90.40;;;;;;5095442;28;19908;-71
2022/07/24 08:16:20;;;;;;;;;;;37.90;91.50;;;;;;5095634;28;19904;-71
2022/07/24 08:18:46;;;;;;;;;;;37.70;91.50;;;;;;5094976;28;20348;-71
2022/07/24 08:21:12;;;;;;;;;;;37.40;92.40;;;;;;5095643;28;20006;-72
2022/07/24 08:23:38;;;;;;;;;;;37.40;93.00;;;;;;5095219;28;19910;-71
2022/07/24 08:26:05;;;;;;;;;;;37.70;93.00;;;;;;5094575;28;20268;-71
2022/07/24 08:28:31;;;;;;;;;;;37.90;92.80;;;;;;5094938;28;19904;-71
2022/07/24 08:30:57;;;;;;;;;;;37.50;92.90;;;;;;5093492;28;19910;-70
2022/07/24 08:33:22;;;;;;;;;;;37.40;93.30;;;;;;5095081;28;19904;-70
2022/07/24 08:35:48;;;;;;;;;;;37.30;93.20;;;;;;5094809;28;19904;-71
2022/07/24 08:38:14;;;;;;;;;;;36.90;93.50;;;;;;5094878;28;19916;-71
2022/07/24 08:40:40;;;;;;;;;;;36.60;93.70;;;;;;5094957;28;19904;-71
2022/07/24 08:43:07;;;;;;;;;;;36.60;93.90;;;;;;5093389;28;19904;-71
2022/07/24 08:45:37;;;;;;;;;;;36.80;94.00;;;;;;5093104;28;19911;-71
2022/07/24 08:48:04;;;;;;;;;;;37.10;93.90;;;;;;5094369;28;19912;-71
2022/07/24 08:50:31;;;;;;;;;;;37.20;93.80;;;;;;5094654;28;19904;-71
2022/07/24 08:52:57;;;;;;;;;;;37.40;93.30;;;;;;5094853;28;20301;-71
2022/07/24 08:55:23;;;;;;;;;;;37.30;92.90;;;;;;5094915;28;20038;-72
2022/07/24 08:57:49;;;;;;;;;;;36.80;93.50;;;;;;5094384;28;19951;-72
2022/07/24 09:00:15;;;;;;;;;;;36.70;94.40;;;;;;5092779;28;20006;-71
2022/07/24 09:02:41;;;;;;;;;;;36.40;94.90;;;;;;5094250;28;20356;-71
2022/07/24 09:05:07;;;;;;;;;;;36.40;95.60;;;;;;5094261;28;19904;-71
2022/07/24 09:07:33;;;;;;;;;;;36.70;95.90;;;;;;5094402;28;20322;-72
2022/07/24 09:10:06;;;;;;;;;;;36.90;95.50;;;;;;5094402;28;19930;-71
2022/07/24 09:12:33;;;;;;;;;;;36.80;95.80;;;;;;5093108;28;19904;-71
2022/07/24 09:14:59;;;;;;;;;;;36.60;95.80;;;;;;5094342;28;19904;-71
2022/07/24 09:17:25;;;;;;;;;;;36.30;96.90;;;;;;5094251;28;20253;-72
2022/07/24 09:19:55;;;;;;;;;;;36.10;97.20;;;;;;5093982;28;20387;-71
2022/07/24 09:22:31;;;;;;;;;;;35.90;97.60;;;;;;5094628;28;20343;-71
2022/07/24 09:25:08;;;;;;;;;;;35.70;98.40;;;;;;5092450;28;20010;-71
2022/07/24 09:27:35;;;;;;;;;;;35.40;98.10;;;;;;5094425;28;19946;-70
2022/07/24 09:30:01;;;;;;;;;;;35.40;98.90;;;;;;5094589;28;19904;-71
2022/07/24 09:32:27;;;;;;;;;;;35.60;98.50;;;;;;5092296;28;20275;-70
2022/07/24 09:34:53;;;;;;;;;;;35.80;97.80;;;;;;5092163;28;19904;-71
2022/07/24 09:37:19;;;;;;;;;;;35.90;97.20;;;;;;5093658;28;19903;-70
2022/07/24 09:39:46;;;;;;;;;;;35.80;98.10;;;;;;5093709;28;19957;-72
2022/07/24 09:42:12;;;;;;;;;;;35.90;97.80;;;;;;5093578;28;19947;-71
2022/07/24 09:44:38;;;;;;;;;;;35.90;97.90;;;;;;5093388;28;19915;-71
2022/07/24 09:47:08;;;;;;;;;;;35.90;97.60;;;;;;5093933;28;20317;-71
2022/07/24 09:49:35;;;;;;;;;;;35.50;98.00;;;;;;5092125;28;19908;-72
2022/07/24 09:52:04;;;;;;;;;;;35.50;98.10;;;;;;5093086;28;19904;-70
2022/07/24 09:54:30;;;;;;;;;;;35.40;98.10;;;;;;5093665;28;19988;-70
2022/07/24 09:57:14;;;;;;;;;;;35.50;98.20;;;;;;5093585;28;19904;-72
2022/07/24 09:59:40;;;;;;;;;;;35.50;98.70;;;;;;5093354;28;19958;-71
2022/07/24 10:02:07;;;;;;;;;;;35.60;98.30;;;;;;5093247;28;19956;-71
2022/07/24 10:04:34;;;;;;;;;;;35.60;98.90;;;;;;5093709;28;19908;-71
2022/07/24 10:07:02;;;;;;;;;;;35.80;98.30;;;;;;5092989;28;19916;-71
2022/07/24 10:09:29;;;;;;;;;;;35.90;98.10;;;;;;5092895;28;20321;-72
2022/07/24 10:11:56;;;;;;;;;;;35.90;98.20;;;;;;5093365;28;19940;-71
2022/07/24 10:14:24;;;;;;;;;;;35.90;98.70;;;;;;5092937;28;19904;-71
2022/07/24 10:16:57;;;;;;;;;;;36.10;98.10;;;;;;5093231;28;20406;-73
2022/07/24 10:19:27;;;;;;;;;;;36.10;97.10;;;;;;5092734;28;19967;-71
2022/07/24 10:21:55;;;;;;;;;;;36.20;97.40;;;;;;5093034;28;19911;-71
2022/07/24 10:24:35;;;;;;;;;;;36.20;96.70;;;;;;5092940;28;19904;-71
2022/07/24 10:27:03;;;;;;;;;;;36.30;96.20;;;;;;5093296;28;19955;-71
2022/07/24 10:29:29;;;;;;;;;;;36.20;95.30;;;;;;5092799;28;19904;-71
2022/07/24 10:31:56;;;;;;;;;;;36.30;95.10;;;;;;5092809;28;19963;-71
2022/07/24 10:34:40;;;;;;;;;;;36.20;93.60;;;;;;5092486;28;19943;-71
2022/07/24 10:37:24;;;;;;;;;;;36.10;94.70;;;;;;5092694;28;19958;-71
2022/07/24 10:39:56;;;;;;;;;;;36.10;95.20;;;;;;5092792;28;19998;-71
2022/07/24 10:42:22;;;;;;;;;;;36.40;94.70;;;;;;5092935;28;20069;-71
2022/07/24 10:45:06;;;;;;;;;;;36.30;93.50;;;;;;5092975;28;20352;-71
2022/07/24 10:47:32;;;;;;;;;;;36.10;93.50;;;;;;5091513;28;19908;-71
2022/07/24 10:50:00;;;;;;;;;;;36.10;93.50;;;;;;5092901;28;19969;-71
2022/07/24 10:52:30;;;;;;;;;;;36.00;93.20;;;;;;5092542;28;19908;-71
2022/07/24 10:55:14;;;;;;;;;;;36.20;93.20;;;;;;5092302;28;19904;-71
2022/07/24 10:57:56;;;;;;;;;;;36.30;91.20;;;;;;5092365;28;19962;-71
2022/07/24 11:00:26;;;;;;;;;;;36.40;91.30;;;;;;5092717;28;19993;-72
2022/07/24 11:03:00;;;;;;;;;;;36.50;89.90;;;;;;5092399;28;20379;-71
2022/07/24 11:05:29;;;;;;;;;;;36.60;89.60;;;;;;5092324;28;19912;-71
2022/07/24 11:08:14;;;;;;;;;;;36.80;84.80;;;;;;5092325;28;20398;-71
2022/07/24 11:10:47;;;;;;;;;;;37.00;81.10;;;;;;5092874;28;19904;-71
2022/07/24 11:13:31;;;;;;;;;;;37.10;80.80;;;;;;5092671;28;19948;-71
2022/07/24 11:16:16;;;;;;;;;;;37.20;79.40;;;;;;5092341;28;19983;-71
2022/07/24 11:18:42;;;;;;;;;;;37.10;81.60;;;;;;5091857;28;19916;-71
2022/07/24 11:21:08;;;;;;;;;;;36.90;83.90;;;;;;5090936;28;19954;-71
2022/07/24 11:23:34;;;;;;;;;;;36.90;85.60;;;;;;5091329;28;19965;-71
2022/07/24 11:26:21;;;;;;;;;;;37.00;85.00;;;;;;5098792;28;19903;-71
2022/07/24 11:29:06;;;;;;;;;;;37.10;85.50;;;;;;5098557;28;19908;-71
2022/07/24 11:31:32;;;;;;;;;;;36.90;87.50;;;;;;5098901;28;19943;-72
2022/07/24 11:33:58;;;;;;;;;;;36.90;88.30;;;;;;5098732;28;20340;-71
2022/07/24 11:36:24;;;;;;;;;;;36.70;90.60;;;;;;5098832;28;19904;-71
2022/07/24 11:38:51;;;;;;;;;;;36.80;91.70;;;;;;5098636;28;20052;-71
2022/07/24 11:41:17;;;;;;;;;;;37.00;92.50;;;;;;5098796;28;19957;-71
2022/07/24 11:43:53;;;;;;;;;;;36.80;93.50;;;;;;5098983;28;19904;-71
2022/07/24 11:46:39;;;;;;;;;;;36.80;91.70;;;;;;5098652;28;19939;-71
2022/07/24 11:49:05;;;;;;;;;;;36.90;93.10;;;;;;5098446;28;19911;-71
2022/07/24 11:51:31;;;;;;;;;;;36.70;93.90;;;;;;5098411;28;20003;-72
2022/07/24 11:53:57;;;;;;;;;;;36.80;94.20;;;;;;5099028;28;19904;-71
2022/07/24 11:56:24;;;;;;;;;;;36.90;93.60;;;;;;5099331;28;19988;-71
2022/07/24 11:58:50;;;;;;;;;;;36.90;93.90;;;;;;5097172;28;20003;-71
2022/07/24 12:01:19;;;;;;;;;;;36.90;91.70;;;;;;5098429;28;19954;-71
2022/07/24 12:03:52;;;;;;;;;;;36.80;91.40;;;;;;5098895;28;19914;-71
2022/07/24 12:06:18;;;;;;;;;;;36.40;93.30;;;;;;5098519;28;19911;-71
2022/07/24 12:08:44;;;;;;;;;;;36.60;93.70;;;;;;5098916;28;19904;-71
2022/07/24 12:11:10;;;;;;;;;;;36.70;93.10;;;;;;5098477;28;19904;-71
2022/07/24 12:13:41;;;;;;;;;;;36.70;94.40;;;;;;5098517;28;19904;-71
2022/07/24 12:16:07;;;;;;;;;;;36.80;94.90;;;;;;5097497;28;19911;-71
2022/07/24 12:18:33;;;;;;;;;;;36.80;95.00;;;;;;5098428;28;19915;-71
2022/07/24 12:21:01;;;;;;;;;;;36.80;95.30;;;;;;5098408;28;19910;-71
2022/07/24 12:23:29;;;;;;;;;;;36.90;95.00;;;;;;5097060;28;19950;-71
2022/07/24 12:25:54;;;;;;;;;;;36.90;95.70;;;;;;5098442;28;20363;-71
2022/07/24 12:28:20;;;;;;;;;;;36.80;96.30;;;;;;5098567;28;19964;-71
2022/07/24 12:30:53;;;;;;;;;;;36.80;96.60;;;;;;5098553;28;19983;-71
2022/07/24 12:33:20;;;;;;;;;;;36.80;96.80;;;;;;5098687;28;19904;-71
2022/07/24 12:35:55;;;;;;;;;;;37.00;96.00;;;;;;5095649;28;19904;-72
2022/07/24 12:38:25;;;;;;;;;;;36.90;93.80;;;;;;5094926;28;19955;-71
2022/07/24 12:40:51;;;;;;;;;;;37.00;92.20;;;;;;5095187;28;19912;-71
2022/07/24 12:43:17;;;;;;;;;;;37.10;92.70;;;;;;5095083;28;19908;-71
2022/07/24 12:45:42;;;;;;;;;;;37.20;90.30;;;;;;5095294;28;19904;-71
2022/07/24 12:48:18;;;;;;;;;;;37.20;85.90;;;;;;5094861;28;19910;-71
2022/07/24 12:51:13;;;;;;;;;;;37.10;85.50;;;;;;5095308;28;20006;-71
2022/07/24 12:53:41;;;;;;;;;;;36.80;88.30;;;;;;5077097;28;19949;-71
2022/07/24 12:56:11;;;;;;;;;;;37.00;86.70;;;;;;5094745;28;19940;-71
2022/07/24 12:58:52;;;;;;;;;;;36.90;86.80;;;;;;5095018;28;19919;-71
2022/07/24 13:01:18;;;;;;;;;;;37.00;88.30;;;;;;5094817;28;19915;-71
2022/07/24 13:03:49;;;;;;;;;;;36.80;90.50;;;;;;5094867;28;19904;-72
2022/07/24 13:06:16;;;;;;;;;;;36.80;91.30;;;;;;5095123;28;19947;-70
2022/07/24 13:08:41;;;;;;;;;;;36.70;93.10;;;;;;5094481;28;20337;-70
2022/07/24 13:11:07;;;;;;;;;;;36.40;95.50;;;;;;5094489;28;19957;-71
2022/07/24 13:13:33;;;;;;;;;;;36.40;96.20;;;;;;5092973;28;19904;-71
2022/07/24 13:15:59;;;;;;;;;;;36.30;95.60;;;;;;5094863;28;20248;-71
2022/07/24 13:18:25;;;;;;;;;;;36.10;96.00;;;;;;5099834;28;19961;-70
2022/07/24 13:20:51;;;;;;;;;;;36.10;96.20;;;;;;5094626;28;19927;-71
2022/07/24 13:23:16;;;;;;;;;;;35.90;96.90;;;;;;5094213;28;19904;-70
2022/07/24 13:25:44;;;;;;;;;;;35.60;97.80;;;;;;5094043;28;19904;-71
2022/07/24 13:28:10;;;;;;;;;;;35.50;98.10;;;;;;5093948;28;19908;-71
2022/07/24 13:30:36;;;;;;;;;;;35.20;97.90;;;;;;5093922;28;19904;-70
2022/07/24 13:33:02;;;;;;;;;;;35.30;97.20;;;;;;5094397;28;19910;-70
2022/07/24 13:35:28;;;;;;;;;;;35.20;97.40;;;;;;5094001;28;19904;-70
2022/07/24 13:37:54;;;;;;;;;;;35.10;99.10;;;;;;5094175;28;19912;-70
2022/07/24 13:40:19;;;;;;;;;;;35.10;99.90;;;;;;5092470;28;19927;-71
2022/07/24 13:42:45;;;;;;;;;;;35.00;99.90;;;;;;5093870;28;19930;-70
2022/07/24 13:45:11;;;;;;;;;;;34.80;99.90;;;;;;5093766;28;19991;-71
2022/07/24 13:47:37;;;;;;;;;;;34.90;99.90;;;;;;5093496;28;19904;-70
2022/07/24 13:50:03;;;;;;;;;;;34.90;99.80;;;;;;5093975;28;19904;-70
2022/07/24 13:52:29;;;;;;;;;;;35.00;99.50;;;;;;5093645;28;20017;-70
2022/07/24 13:54:54;;;;;;;;;;;35.00;99.90;;;;;;5094031;28;19904;-71
2022/07/24 13:57:20;;;;;;;;;;;35.20;99.90;;;;;;5091971;28;19908;-70
2022/07/24 13:59:46;;;;;;;;;;;35.30;99.90;;;;;;5093786;28;19911;-71
2022/07/24 14:02:12;;;;;;;;;;;35.30;99.90;;;;;;5093430;28;19947;-70
2022/07/24 14:04:37;;;;;;;;;;;35.20;99.90;;;;;;5093857;28;19911;-70
2022/07/24 14:07:03;;;;;;;;;;;35.40;99.90;;;;;;5093353;28;19904;-71
2022/07/24 14:09:29;;;;;;;;;;;35.40;99.90;;;;;;5093135;28;19961;-70
2022/07/24 14:11:55;;;;;;;;;;;35.20;99.90;;;;;;5093697;28;19903;-70
2022/07/24 14:14:21;;;;;;;;;;;34.80;99.90;;;;;;5093410;28;19957;-70
2022/07/24 14:16:47;;;;;;;;;;;35.00;99.90;;;;;;5093161;28;19904;-70